sensor_id;sensor_type;location;lat;lon;timestamp;pressure;altitude;pressure_sealevel;temperature
19948;BMP180;10135;50.702;7.276;2022-11-11T06:31:42;100893.00;;;12.10
19948;BMP180;10135;50.702;7.276;2022-11-11T06:33:43;100894.00;;;12.10
19948;BMP180;10135;50.702;7.276;2022-11-11T06:35:43;100901.00;;;12.10
19948;BMP180;10135;50.702;7.276;2022-11-11T06:37:44;100910.00;;;12.10
19948;BMP180;10135;50.702;7.276;2022-11-11T06:39:45;100907.00;;;12.10
19948;BMP180;10135;50.702;7.276;2022-11-11T06:41:46;100914.00;;;12.10
19948;BMP180;10135;50.702;7.276;2022-11-11T06:43:46;100913.00;;;12.10
19948;BMP180;10135;50.702;7.276;2022-11-11T06:45:53;100921.00;;;12.10
19948;BMP180;10135;50.702;7.276;2022-11-11T06:47:54;100919.00;;;12.20
19948;BMP180;10135;50.702;7.276;2022-11-11T06:49:55;100917.00;;;12.20
19948;BMP180;10135;50.702;7.276;2022-11-11T06:51:55;100913.00;;;12.20
19948;BMP180;10135;50.702;7.276;2022-11-11T06:53:56;100915.00;;;12.20
19948;BMP180;10135;50.702;7.276;2022-11-11T06:55:57;100913.00;;;12.20
19948;BMP180;10135;50.702;7.276;2022-11-11T06:58:09;100921.00;;;12.20
19948;BMP180;10135;50.702;7.276;2022-11-11T07:00:11;100917.00;;;12.30
19948;BMP180;10135;50.702;7.276;2022-11-11T07:02:12;100919.00;;;12.30
19948;BMP180;10135;50.702;7.276;2022-11-11T07:04:13;100925.00;;;12.30
19948;BMP180;10135;50.702;7.276;2022-11-11T07:06:14;100936.00;;;12.30
19948;BMP180;10135;50.702;7.276;2022-11-11T07:08:17;100927.00;;;12.30
19948;BMP180;10135;50.702;7.276;2022-11-11T07:10:18;100917.00;;;12.30
19948;BMP180;10135;50.702;7.276;2022-11-11T07:12:18;100921.00;;;12.40
19948;BMP180;10135;50.702;7.276;2022-11-11T07:14:19;100920.00;;;12.40
19948;BMP180;10135;50.702;7.276;2022-11-11T07:16:20;100925.00;;;12.40
19948;BMP180;10135;50.702;7.276;2022-11-11T07:18:20;100929.00;;;12.40
19948;BMP180;10135;50.702;7.276;2022-11-11T07:20:21;100940.00;;;12.40
19948;BMP180;10135;50.702;7.276;2022-11-11T07:22:22;100939.00;;;12.50
19948;BMP180;10135;50.702;7.276;2022-11-11T07:24:22;100938.00;;;12.50
19948;BMP180;10135;50.702;7.276;2022-11-11T07:26:23;100940.00;;;12.50
19948;BMP180;10135;50.702;7.276;2022-11-11T07:28:28;100936.00;;;12.50
19948;BMP180;10135;50.702;7.276;2022-11-11T07:30:29;100933.00;;;12.60
19948;BMP180;10135;50.702;7.276;2022-11-11T07:32:30;100929.00;;;12.60
19948;BMP180;10135;50.702;7.276;2022-11-11T07:34:31;100934.00;;;12.60
19948;BMP180;10135;50.702;7.276;2022-11-11T07:36:32;100936.00;;;12.60
19948;BMP180;10135;50.702;7.276;2022-11-11T07:38:33;100942.00;;;12.60
19948;BMP180;10135;50.702;7.276;2022-11-11T07:40:33;100951.00;;;12.60
19948;BMP180;10135;50.702;7.276;2022-11-11T07:42:38;100945.00;;;12.60
19948;BMP180;10135;50.702;7.276;2022-11-11T07:44:39;100933.00;;;12.70
19948;BMP180;10135;50.702;7.276;2022-11-11T07:46:40;100939.00;;;12.70
19948;BMP180;10135;50.702;7.276;2022-11-11T07:48:41;100946.00;;;12.70
19948;BMP180;10135;50.702;7.276;2022-11-11T07:50:41;100946.00;;;12.70
19948;BMP180;10135;50.702;7.276;2022-11-11T07:52:48;100943.00;;;12.70
19948;BMP180;10135;50.702;7.276;2022-11-11T07:54:49;100951.00;;;12.70
19948;BMP180;10135;50.702;7.276;2022-11-11T07:56:50;100952.00;;;12.70
19948;BMP180;10135;50.702;7.276;2022-11-11T07:58:51;100949.00;;;12.70
19948;BMP180;10135;50.702;7.276;2022-11-11T08:00:54;100951.00;;;12.80
19948;BMP180;10135;50.702;7.276;2022-11-11T08:02:58;100957.00;;;12.80
19948;BMP180;10135;50.702;7.276;2022-11-11T08:04:58;100953.00;;;12.80
19948;BMP180;10135;50.702;7.276;2022-11-11T08:06:59;100954.00;;;12.80
19948;BMP180;10135;50.702;7.276;2022-11-11T08:09:00;100953.00;;;12.90
19948;BMP180;10135;50.702;7.276;2022-11-11T08:11:00;100955.00;;;12.90
19948;BMP180;10135;50.702;7.276;2022-11-11T08:13:01;100959.00;;;13.00
19948;BMP180;10135;50.702;7.276;2022-11-11T08:15:21;100963.00;;;13.00
19948;BMP180;10135;50.702;7.276;2022-11-11T08:17:21;100966.00;;;13.10
19948;BMP180;10135;50.702;7.276;2022-11-11T08:19:22;100967.00;;;13.10
19948;BMP180;10135;50.702;7.276;2022-11-11T08:21:23;100963.00;;;13.10
19948;BMP180;10135;50.702;7.276;2022-11-11T08:23:24;100961.00;;;13.20
19948;BMP180;10135;50.702;7.276;2022-11-11T08:25:32;100969.00;;;13.20
19948;BMP180;10135;50.702;7.276;2022-11-11T08:27:33;100970.00;;;13.30
19948;BMP180;10135;50.702;7.276;2022-11-11T08:29:34;100968.00;;;13.30
19948;BMP180;10135;50.702;7.276;2022-11-11T08:31:35;100967.00;;;13.40
19948;BMP180;10135;50.702;7.276;2022-11-11T08:33:36;100965.00;;;13.40
19948;BMP180;10135;50.702;7.276;2022-11-11T08:35:36;100970.00;;;13.50
19948;BMP180;10135;50.702;7.276;2022-11-11T08:37:37;100974.00;;;13.50
19948;BMP180;10135;50.702;7.276;2022-11-11T08:39:38;100964.00;;;13.60
19948;BMP180;10135;50.702;7.276;2022-11-11T08:41:38;100970.00;;;13.70
19948;BMP180;10135;50.702;7.276;2022-11-11T08:43:39;100966.00;;;13.70
19948;BMP180;10135;50.702;7.276;2022-11-11T08:45:40;100967.00;;;13.80
19948;BMP180;10135;50.702;7.276;2022-11-11T08:47:43;100966.00;;;13.80
19948;BMP180;10135;50.702;7.276;2022-11-11T08:49:43;100971.00;;;13.90
19948;BMP180;10135;50.702;7.276;2022-11-11T08:51:44;100970.00;;;14.00
19948;BMP180;10135;50.702;7.276;2022-11-11T08:53:45;100971.00;;;14.00
19948;BMP180;10135;50.702;7.276;2022-11-11T08:55:46;100980.00;;;14.10
19948;BMP180;10135;50.702;7.276;2022-11-11T08:57:47;100969.00;;;14.20
19948;BMP180;10135;50.702;7.276;2022-11-11T08:59:47;100969.00;;;14.30
19948;BMP180;10135;50.702;7.276;2022-11-11T09:01:48;100969.00;;;14.40
19948;BMP180;10135;50.702;7.276;2022-11-11T09:03:48;100975.00;;;14.50
19948;BMP180;10135;50.702;7.276;2022-11-11T09:05:50;100976.00;;;14.50
19948;BMP180;10135;50.702;7.276;2022-11-11T09:07:51;100982.00;;;14.60
19948;BMP180;10135;50.702;7.276;2022-11-11T09:09:52;100982.00;;;14.60
19948;BMP180;10135;50.702;7.276;2022-11-11T09:11:53;100977.00;;;14.70
19948;BMP180;10135;50.702;7.276;2022-11-11T09:14:05;100975.00;;;14.70
19948;BMP180;10135;50.702;7.276;2022-11-11T09:16:07;100983.00;;;14.70
19948;BMP180;10135;50.702;7.276;2022-11-11T09:18:08;100985.00;;;14.80
19948;BMP180;10135;50.702;7.276;2022-11-11T09:20:10;100979.00;;;14.80
19948;BMP180;10135;50.702;7.276;2022-11-11T09:22:11;100985.00;;;14.80
19948;BMP180;10135;50.702;7.276;2022-11-11T09:24:12;100996.00;;;14.80
19948;BMP180;10135;50.702;7.276;2022-11-11T09:26:13;100995.00;;;14.80
19948;BMP180;10135;50.702;7.276;2022-11-11T09:28:13;100995.00;;;14.80
19948;BMP180;10135;50.702;7.276;2022-11-11T09:30:14;100998.00;;;14.90
19948;BMP180;10135;50.702;7.276;2022-11-11T09:32:15;100986.00;;;14.90
19948;BMP180;10135;50.702;7.276;2022-11-11T09:34:16;100994.00;;;14.90
19948;BMP180;10135;50.702;7.276;2022-11-11T09:36:17;101003.00;;;14.90
19948;BMP180;10135;50.702;7.276;2022-11-11T09:38:18;101008.00;;;14.90
19948;BMP180;10135;50.702;7.276;2022-11-11T09:40:21;101000.00;;;15.00
19948;BMP180;10135;50.702;7.276;2022-11-11T09:42:39;101005.00;;;15.00
19948;BMP180;10135;50.702;7.276;2022-11-11T09:47:30;101014.00;;;15.20
19948;BMP180;10135;50.702;7.276;2022-11-11T09:50:07;101015.00;;;15.20
19948;BMP180;10135;50.702;7.276;2022-11-11T09:52:27;101015.00;;;15.30
19948;BMP180;10135;50.702;7.276;2022-11-11T09:56:47;101007.00;;;15.30
19948;BMP180;10135;50.702;7.276;2022-11-11T09:59:06;101015.00;;;15.30
19948;BMP180;10135;50.702;7.276;2022-11-11T10:01:22;101017.00;;;15.40
19948;BMP180;10135;50.702;7.276;2022-11-11T10:03:25;101009.00;;;15.50
19948;BMP180;10135;50.702;7.276;2022-11-11T10:05:50;101011.00;;;15.50
19948;BMP180;10135;50.702;7.276;2022-11-11T10:08:24;100998.00;;;15.50
19948;BMP180;10135;50.702;7.276;2022-11-11T10:10:33;100994.00;;;15.60
19948;BMP180;10135;50.702;7.276;2022-11-11T10:12:50;100992.00;;;15.60
19948;BMP180;10135;50.702;7.276;2022-11-11T10:14:52;100985.00;;;15.60
19948;BMP180;10135;50.702;7.276;2022-11-11T10:17:18;100993.00;;;15.60
19948;BMP180;10135;50.702;7.276;2022-11-11T10:19:32;100988.00;;;15.70
19948;BMP180;10135;50.702;7.276;2022-11-11T10:21:51;100997.00;;;15.70
19948;BMP180;10135;50.702;7.276;2022-11-11T10:24:00;100993.00;;;15.80
19948;BMP180;10135;50.702;7.276;2022-11-11T10:26:19;101001.00;;;15.80
19948;BMP180;10135;50.702;7.276;2022-11-11T10:28:27;101004.00;;;15.80
19948;BMP180;10135;50.702;7.276;2022-11-11T10:30:32;100998.00;;;15.90
19948;BMP180;10135;50.702;7.276;2022-11-11T10:32:34;100995.00;;;16.00
19948;BMP180;10135;50.702;7.276;2022-11-11T10:34:36;100996.00;;;16.00
19948;BMP180;10135;50.702;7.276;2022-11-11T10:36:52;100998.00;;;16.10
19948;BMP180;10135;50.702;7.276;2022-11-11T10:39:02;101003.00;;;16.10
19948;BMP180;10135;50.702;7.276;2022-11-11T10:41:14;100996.00;;;16.10
19948;BMP180;10135;50.702;7.276;2022-11-11T10:43:27;101004.00;;;16.20
19948;BMP180;10135;50.702;7.276;2022-11-11T10:45:52;100998.00;;;16.20
19948;BMP180;10135;50.702;7.276;2022-11-11T10:48:20;100992.00;;;16.30
19948;BMP180;10135;50.702;7.276;2022-11-11T10:50:36;101001.00;;;16.30
19948;BMP180;10135;50.702;7.276;2022-11-11T10:55:29;101012.00;;;16.40
19948;BMP180;10135;50.702;7.276;2022-11-11T10:57:59;100999.00;;;16.50
19948;BMP180;10135;50.702;7.276;2022-11-11T11:00:08;100995.00;;;16.50
19948;BMP180;10135;50.702;7.276;2022-11-11T11:02:18;100993.00;;;16.50
19948;BMP180;10135;50.702;7.276;2022-11-11T11:04:41;100982.00;;;16.60
19948;BMP180;10135;50.702;7.276;2022-11-11T11:06:47;100986.00;;;16.60
19948;BMP180;10135;50.702;7.276;2022-11-11T11:08:57;100982.00;;;16.70
19948;BMP180;10135;50.702;7.276;2022-11-11T11:11:18;100984.00;;;16.70
19948;BMP180;10135;50.702;7.276;2022-11-11T11:13:36;100981.00;;;16.70
19948;BMP180;10135;50.702;7.276;2022-11-11T11:15:43;100985.00;;;16.80
19948;BMP180;10135;50.702;7.276;2022-11-11T11:18:07;100987.00;;;16.80
19948;BMP180;10135;50.702;7.276;2022-11-11T11:20:14;100987.00;;;16.80
19948;BMP180;10135;50.702;7.276;2022-11-11T11:22:15;100979.00;;;16.90
19948;BMP180;10135;50.702;7.276;2022-11-11T11:24:31;100977.00;;;16.90
19948;BMP180;10135;50.702;7.276;2022-11-11T11:26:46;100985.00;;;17.00
19948;BMP180;10135;50.702;7.276;2022-11-11T11:28:56;100986.00;;;17.00
19948;BMP180;10135;50.702;7.276;2022-11-11T11:31:01;100981.00;;;17.10
19948;BMP180;10135;50.702;7.276;2022-11-11T11:33:06;100979.00;;;17.10
19948;BMP180;10135;50.702;7.276;2022-11-11T11:35:07;100984.00;;;17.10
19948;BMP180;10135;50.702;7.276;2022-11-11T11:37:08;100970.00;;;17.10
19948;BMP180;10135;50.702;7.276;2022-11-11T11:39:09;100974.00;;;17.20
19948;BMP180;10135;50.702;7.276;2022-11-11T11:41:09;100974.00;;;17.20
19948;BMP180;10135;50.702;7.276;2022-11-11T11:43:32;100976.00;;;17.20
19948;BMP180;10135;50.702;7.276;2022-11-11T11:45:34;100966.00;;;17.30
19948;BMP180;10135;50.702;7.276;2022-11-11T11:50:38;100969.00;;;17.30
19948;BMP180;10135;50.702;7.276;2022-11-11T11:55:24;100966.00;;;17.40
19948;BMP180;10135;50.702;7.276;2022-11-11T11:57:45;100956.00;;;17.40
19948;BMP180;10135;50.702;7.276;2022-11-11T12:00:11;100963.00;;;17.40
19948;BMP180;10135;50.702;7.276;2022-11-11T12:02:37;100953.00;;;17.40
19948;BMP180;10135;50.702;7.276;2022-11-11T12:10:41;100963.00;;;17.60
19948;BMP180;10135;50.702;7.276;2022-11-11T12:13:08;100956.00;;;17.60
19948;BMP180;10135;50.702;7.276;2022-11-11T12:15:40;100956.00;;;17.70
19948;BMP180;10135;50.702;7.276;2022-11-11T12:21:16;100957.00;;;17.80
19948;BMP180;10135;50.702;7.276;2022-11-11T12:28:11;100949.00;;;17.90
19948;BMP180;10135;50.702;7.276;2022-11-11T12:30:22;100947.00;;;18.00
19948;BMP180;10135;50.702;7.276;2022-11-11T12:35:56;100939.00;;;18.00
19948;BMP180;10135;50.702;7.276;2022-11-11T12:45:26;100939.00;;;18.10
19948;BMP180;10135;50.702;7.276;2022-11-11T12:50:18;100941.00;;;18.20
19948;BMP180;10135;50.702;7.276;2022-11-11T12:53:14;100933.00;;;18.20
19948;BMP180;10135;50.702;7.276;2022-11-11T12:55:42;100935.00;;;18.20
19948;BMP180;10135;50.702;7.276;2022-11-11T12:58:14;100944.00;;;18.20
19948;BMP180;10135;50.702;7.276;2022-11-11T13:00:20;100947.00;;;18.20
19948;BMP180;10135;50.702;7.276;2022-11-11T13:05:16;100941.00;;;18.30
19948;BMP180;10135;50.702;7.276;2022-11-11T13:07:59;100944.00;;;18.20
19948;BMP180;10135;50.702;7.276;2022-11-11T13:12:30;100943.00;;;18.20
19948;BMP180;10135;50.702;7.276;2022-11-11T13:15:02;100938.00;;;18.20
19948;BMP180;10135;50.702;7.276;2022-11-11T13:17:10;100943.00;;;18.20
19948;BMP180;10135;50.702;7.276;2022-11-11T13:19:18;100935.00;;;18.20
19948;BMP180;10135;50.702;7.276;2022-11-11T13:21:49;100943.00;;;18.30
19948;BMP180;10135;50.702;7.276;2022-11-11T13:23:52;100942.00;;;18.30
19948;BMP180;10135;50.702;7.276;2022-11-11T13:25:59;100943.00;;;18.30
19948;BMP180;10135;50.702;7.276;2022-11-11T13:28:20;100946.00;;;18.20
19948;BMP180;10135;50.702;7.276;2022-11-11T13:33:12;100943.00;;;18.20
19948;BMP180;10135;50.702;7.276;2022-11-11T13:35:42;100935.00;;;18.20
19948;BMP180;10135;50.702;7.276;2022-11-11T13:37:45;100937.00;;;18.20
19948;BMP180;10135;50.702;7.276;2022-11-11T13:39:48;100937.00;;;18.20
19948;BMP180;10135;50.702;7.276;2022-11-11T13:41:54;100938.00;;;18.20
19948;BMP180;10135;50.702;7.276;2022-11-11T13:44:03;100937.00;;;18.20
19948;BMP180;10135;50.702;7.276;2022-11-11T13:46:06;100937.00;;;18.20
19948;BMP180;10135;50.702;7.276;2022-11-11T13:48:37;100940.00;;;18.10
19948;BMP180;10135;50.702;7.276;2022-11-11T13:50:39;100934.00;;;18.20
19948;BMP180;10135;50.702;7.276;2022-11-11T13:52:59;100932.00;;;18.10
19948;BMP180;10135;50.702;7.276;2022-11-11T13:55:08;100928.00;;;18.10
19948;BMP180;10135;50.702;7.276;2022-11-11T13:57:24;100924.00;;;18.10
19948;BMP180;10135;50.702;7.276;2022-11-11T13:59:31;100924.00;;;18.10
19948;BMP180;10135;50.702;7.276;2022-11-11T14:01:37;100924.00;;;18.10
19948;BMP180;10135;50.702;7.276;2022-11-11T14:05:44;100932.00;;;18.00
19948;BMP180;10135;50.702;7.276;2022-11-11T14:09:58;100925.00;;;17.90
19948;BMP180;10135;50.702;7.276;2022-11-11T14:12:56;100924.00;;;17.90
19948;BMP180;10135;50.702;7.276;2022-11-11T14:14:58;100930.00;;;17.90
19948;BMP180;10135;50.702;7.276;2022-11-11T14:17:04;100936.00;;;17.90
19948;BMP180;10135;50.702;7.276;2022-11-11T14:21:47;100929.00;;;17.80
19948;BMP180;10135;50.702;7.276;2022-11-11T14:23:54;100933.00;;;17.80
19948;BMP180;10135;50.702;7.276;2022-11-11T14:30:39;100919.00;;;17.70
19948;BMP180;10135;50.702;7.276;2022-11-11T14:33:00;100930.00;;;17.70
19948;BMP180;10135;50.702;7.276;2022-11-11T14:35:22;100934.00;;;17.70
19948;BMP180;10135;50.702;7.276;2022-11-11T14:39:57;100932.00;;;17.70
19948;BMP180;10135;50.702;7.276;2022-11-11T14:41:58;100934.00;;;17.70
19948;BMP180;10135;50.702;7.276;2022-11-11T14:46:28;100931.00;;;17.70
19948;BMP180;10135;50.702;7.276;2022-11-11T14:48:54;100930.00;;;17.60
19948;BMP180;10135;50.702;7.276;2022-11-11T14:50:57;100930.00;;;17.60
19948;BMP180;10135;50.702;7.276;2022-11-11T14:53:12;100926.00;;;17.60
19948;BMP180;10135;50.702;7.276;2022-11-11T14:55:28;100924.00;;;17.60
19948;BMP180;10135;50.702;7.276;2022-11-11T14:59:37;100928.00;;;17.50
19948;BMP180;10135;50.702;7.276;2022-11-11T15:01:39;100930.00;;;17.50
19948;BMP180;10135;50.702;7.276;2022-11-11T15:03:50;100927.00;;;17.50
19948;BMP180;10135;50.702;7.276;2022-11-11T15:08:24;100917.00;;;17.50
19948;BMP180;10135;50.702;7.276;2022-11-11T15:10:38;100918.00;;;17.50
19948;BMP180;10135;50.702;7.276;2022-11-11T15:15:25;100910.00;;;17.40
19948;BMP180;10135;50.702;7.276;2022-11-11T15:17:48;100914.00;;;17.40
19948;BMP180;10135;50.702;7.276;2022-11-11T15:22:41;100914.00;;;17.30
19948;BMP180;10135;50.702;7.276;2022-11-11T15:28:12;100906.00;;;17.20
19948;BMP180;10135;50.702;7.276;2022-11-11T15:30:17;100900.00;;;17.20
19948;BMP180;10135;50.702;7.276;2022-11-11T15:33:22;100904.00;;;17.10
19948;BMP180;10135;50.702;7.276;2022-11-11T15:36:01;100901.00;;;17.10
19948;BMP180;10135;50.702;7.276;2022-11-11T15:38:05;100905.00;;;17.00
19948;BMP180;10135;50.702;7.276;2022-11-11T15:40:06;100906.00;;;17.00
19948;BMP180;10135;50.702;7.276;2022-11-11T15:42:36;100910.00;;;16.90
19948;BMP180;10135;50.702;7.276;2022-11-11T15:44:38;100911.00;;;16.90
19948;BMP180;10135;50.702;7.276;2022-11-11T15:46:41;100903.00;;;16.80
19948;BMP180;10135;50.702;7.276;2022-11-11T15:48:43;100907.00;;;16.80
19948;BMP180;10135;50.702;7.276;2022-11-11T15:50:44;100911.00;;;16.80
19948;BMP180;10135;50.702;7.276;2022-11-11T15:52:44;100910.00;;;16.80
19948;BMP180;10135;50.702;7.276;2022-11-11T15:54:46;100915.00;;;16.80
19948;BMP180;10135;50.702;7.276;2022-11-11T15:56:47;100906.00;;;16.70
19948;BMP180;10135;50.702;7.276;2022-11-11T15:58:49;100902.00;;;16.70
19948;BMP180;10135;50.702;7.276;2022-11-11T16:00:50;100908.00;;;16.70
19948;BMP180;10135;50.702;7.276;2022-11-11T16:02:53;100904.00;;;16.60
19948;BMP180;10135;50.702;7.276;2022-11-11T16:05:20;100909.00;;;16.60
19948;BMP180;10135;50.702;7.276;2022-11-11T16:07:27;100905.00;;;16.60
19948;BMP180;10135;50.702;7.276;2022-11-11T16:09:30;100908.00;;;16.60
19948;BMP180;10135;50.702;7.276;2022-11-11T16:11:31;100908.00;;;16.50
19948;BMP180;10135;50.702;7.276;2022-11-11T16:13:54;100915.00;;;16.50
19948;BMP180;10135;50.702;7.276;2022-11-11T16:16:28;100912.00;;;16.50
19948;BMP180;10135;50.702;7.276;2022-11-11T16:18:46;100915.00;;;16.40
19948;BMP180;10135;50.702;7.276;2022-11-11T16:23:01;100913.00;;;16.40
19948;BMP180;10135;50.702;7.276;2022-11-11T16:25:04;100914.00;;;16.30
19948;BMP180;10135;50.702;7.276;2022-11-11T16:27:07;100914.00;;;16.30
19948;BMP180;10135;50.702;7.276;2022-11-11T16:29:14;100914.00;;;16.20
19948;BMP180;10135;50.702;7.276;2022-11-11T16:33:34;100914.00;;;16.20
19948;BMP180;10135;50.702;7.276;2022-11-11T16:35:39;100909.00;;;16.20
19948;BMP180;10135;50.702;7.276;2022-11-11T16:37:54;100909.00;;;16.10
19948;BMP180;10135;50.702;7.276;2022-11-11T16:39:55;100908.00;;;16.20
19948;BMP180;10135;50.702;7.276;2022-11-11T16:41:58;100906.00;;;16.10
19948;BMP180;10135;50.702;7.276;2022-11-11T16:43:59;100901.00;;;16.10
19948;BMP180;10135;50.702;7.276;2022-11-11T16:46:04;100909.00;;;16.10
19948;BMP180;10135;50.702;7.276;2022-11-11T16:50:55;100899.00;;;16.00
19948;BMP180;10135;50.702;7.276;2022-11-11T16:53:01;100894.00;;;16.00
19948;BMP180;10135;50.702;7.276;2022-11-11T16:55:05;100899.00;;;15.90
19948;BMP180;10135;50.702;7.276;2022-11-11T16:57:06;100894.00;;;15.80
19948;BMP180;10135;50.702;7.276;2022-11-11T16:59:32;100891.00;;;15.80
19948;BMP180;10135;50.702;7.276;2022-11-11T17:01:42;100901.00;;;15.70
19948;BMP180;10135;50.702;7.276;2022-11-11T17:03:56;100895.00;;;15.70
19948;BMP180;10135;50.702;7.276;2022-11-11T17:06:06;100896.00;;;15.60
19948;BMP180;10135;50.702;7.276;2022-11-11T17:08:39;100895.00;;;15.60
19948;BMP180;10135;50.702;7.276;2022-11-11T17:10:41;100895.00;;;15.60
19948;BMP180;10135;50.702;7.276;2022-11-11T17:12:42;100897.00;;;15.50
19948;BMP180;10135;50.702;7.276;2022-11-11T17:14:43;100889.00;;;15.50
19948;BMP180;10135;50.702;7.276;2022-11-11T17:16:43;100900.00;;;15.50
19948;BMP180;10135;50.702;7.276;2022-11-11T17:18:44;100896.00;;;15.40
19948;BMP180;10135;50.702;7.276;2022-11-11T17:20:46;100902.00;;;15.40
19948;BMP180;10135;50.702;7.276;2022-11-11T17:22:50;100901.00;;;15.30
19948;BMP180;10135;50.702;7.276;2022-11-11T17:24:51;100901.00;;;15.30
19948;BMP180;10135;50.702;7.276;2022-11-11T17:26:54;100888.00;;;15.30
19948;BMP180;10135;50.702;7.276;2022-11-11T17:28:55;100892.00;;;15.20
19948;BMP180;10135;50.702;7.276;2022-11-11T17:30:55;100898.00;;;15.30
19948;BMP180;10135;50.702;7.276;2022-11-11T17:32:56;100894.00;;;15.30
19948;BMP180;10135;50.702;7.276;2022-11-11T17:34:56;100899.00;;;15.30
19948;BMP180;10135;50.702;7.276;2022-11-11T17:36:57;100897.00;;;15.30
19948;BMP180;10135;50.702;7.276;2022-11-11T17:38:58;100894.00;;;15.30
19948;BMP180;10135;50.702;7.276;2022-11-11T17:40:58;100899.00;;;15.30
19948;BMP180;10135;50.702;7.276;2022-11-11T17:42:59;100896.00;;;15.20
19948;BMP180;10135;50.702;7.276;2022-11-11T17:45:00;100903.00;;;15.20
19948;BMP180;10135;50.702;7.276;2022-11-11T17:47:01;100903.00;;;15.20
19948;BMP180;10135;50.702;7.276;2022-11-11T17:49:01;100909.00;;;15.20
19948;BMP180;10135;50.702;7.276;2022-11-11T17:51:03;100907.00;;;15.20
19948;BMP180;10135;50.702;7.276;2022-11-11T17:53:06;100913.00;;;15.20
19948;BMP180;10135;50.702;7.276;2022-11-11T17:55:07;100915.00;;;15.20
19948;BMP180;10135;50.702;7.276;2022-11-11T17:57:08;100911.00;;;15.10
19948;BMP180;10135;50.702;7.276;2022-11-11T17:59:09;100917.00;;;15.10
19948;BMP180;10135;50.702;7.276;2022-11-11T18:01:13;100924.00;;;15.10
19948;BMP180;10135;50.702;7.276;2022-11-11T18:03:15;100917.00;;;15.10
19948;BMP180;10135;50.702;7.276;2022-11-11T18:05:16;100924.00;;;15.10
19948;BMP180;10135;50.702;7.276;2022-11-11T18:07:16;100926.00;;;15.10
19948;BMP180;10135;50.702;7.276;2022-11-11T18:09:17;100924.00;;;15.10
19948;BMP180;10135;50.702;7.276;2022-11-11T18:11:18;100926.00;;;15.10
19948;BMP180;10135;50.702;7.276;2022-11-11T18:13:19;100924.00;;;15.10
19948;BMP180;10135;50.702;7.276;2022-11-11T18:15:19;100918.00;;;15.10
19948;BMP180;10135;50.702;7.276;2022-11-11T18:17:21;100919.00;;;15.10
19948;BMP180;10135;50.702;7.276;2022-11-11T18:19:23;100927.00;;;15.00
19948;BMP180;10135;50.702;7.276;2022-11-11T18:21:25;100929.00;;;15.00
19948;BMP180;10135;50.702;7.276;2022-11-11T18:23:30;100921.00;;;15.00
19948;BMP180;10135;50.702;7.276;2022-11-11T18:25:31;100930.00;;;15.10
19948;BMP180;10135;50.702;7.276;2022-11-11T18:27:31;100925.00;;;15.10
19948;BMP180;10135;50.702;7.276;2022-11-11T18:29:32;100927.00;;;15.10
19948;BMP180;10135;50.702;7.276;2022-11-11T18:31:34;100936.00;;;15.10
19948;BMP180;10135;50.702;7.276;2022-11-11T18:33:35;100939.00;;;15.10
19948;BMP180;10135;50.702;7.276;2022-11-11T18:35:36;100939.00;;;15.10
19948;BMP180;10135;50.702;7.276;2022-11-11T18:37:37;100938.00;;;15.10
19948;BMP180;10135;50.702;7.276;2022-11-11T18:39:38;100931.00;;;15.10
19948;BMP180;10135;50.702;7.276;2022-11-11T18:41:38;100930.00;;;15.10
19948;BMP180;10135;50.702;7.276;2022-11-11T18:43:45;100933.00;;;15.10
19948;BMP180;10135;50.702;7.276;2022-11-11T18:45:46;100941.00;;;15.20
19948;BMP180;10135;50.702;7.276;2022-11-11T18:47:50;100947.00;;;15.20
19948;BMP180;10135;50.702;7.276;2022-11-11T18:49:50;100951.00;;;15.20
19948;BMP180;10135;50.702;7.276;2022-11-11T18:51:51;100948.00;;;15.20
19948;BMP180;10135;50.702;7.276;2022-11-11T18:53:52;100948.00;;;15.20
19948;BMP180;10135;50.702;7.276;2022-11-11T18:55:52;100941.00;;;15.20
19948;BMP180;10135;50.702;7.276;2022-11-11T18:57:53;100943.00;;;15.20
19948;BMP180;10135;50.702;7.276;2022-11-11T18:59:54;100945.00;;;15.20
19948;BMP180;10135;50.702;7.276;2022-11-11T19:01:54;100944.00;;;15.20
19948;BMP180;10135;50.702;7.276;2022-11-11T19:04:04;100946.00;;;15.20
19948;BMP180;10135;50.702;7.276;2022-11-11T19:06:08;100945.00;;;15.10
19948;BMP180;10135;50.702;7.276;2022-11-11T19:08:09;100945.00;;;15.10
19948;BMP180;10135;50.702;7.276;2022-11-11T19:10:10;100949.00;;;15.10
19948;BMP180;10135;50.702;7.276;2022-11-11T19:12:11;100954.00;;;15.10
19948;BMP180;10135;50.702;7.276;2022-11-11T19:14:13;100944.00;;;15.00
19948;BMP180;10135;50.702;7.276;2022-11-11T19:16:19;100949.00;;;15.00
19948;BMP180;10135;50.702;7.276;2022-11-11T19:18:22;100946.00;;;15.00
19948;BMP180;10135;50.702;7.276;2022-11-11T19:20:23;100958.00;;;14.90
19948;BMP180;10135;50.702;7.276;2022-11-11T19:22:23;100954.00;;;14.90
19948;BMP180;10135;50.702;7.276;2022-11-11T19:24:24;100956.00;;;14.90
19948;BMP180;10135;50.702;7.276;2022-11-11T19:26:27;100954.00;;;14.90
19948;BMP180;10135;50.702;7.276;2022-11-11T19:28:29;100960.00;;;14.90
19948;BMP180;10135;50.702;7.276;2022-11-11T19:30:30;100957.00;;;14.80
19948;BMP180;10135;50.702;7.276;2022-11-11T19:32:31;100951.00;;;14.80
19948;BMP180;10135;50.702;7.276;2022-11-11T19:34:31;100961.00;;;14.80
19948;BMP180;10135;50.702;7.276;2022-11-11T19:36:32;100964.00;;;14.80
19948;BMP180;10135;50.702;7.276;2022-11-11T19:38:33;100962.00;;;14.70
19948;BMP180;10135;50.702;7.276;2022-11-11T19:40:36;100962.00;;;14.70
19948;BMP180;10135;50.702;7.276;2022-11-11T19:42:37;100965.00;;;14.60
19948;BMP180;10135;50.702;7.276;2022-11-11T19:44:37;100974.00;;;14.60
19948;BMP180;10135;50.702;7.276;2022-11-11T19:46:38;100966.00;;;14.50
19948;BMP180;10135;50.702;7.276;2022-11-11T19:48:39;100965.00;;;14.50
19948;BMP180;10135;50.702;7.276;2022-11-11T19:50:40;100962.00;;;14.50
19948;BMP180;10135;50.702;7.276;2022-11-11T19:52:41;100963.00;;;14.40
19948;BMP180;10135;50.702;7.276;2022-11-11T19:54:42;100970.00;;;14.40
19948;BMP180;10135;50.702;7.276;2022-11-11T19:56:42;100970.00;;;14.40